createdAt,value
2019-02-19T00:00:03.373Z,44.35
2019-02-19T00:01:03.369Z,44.35
2019-02-19T00:02:03.349Z,44.35
2019-02-19T00:03:03.345Z,44.35
2019-02-19T00:04:03.385Z,44.35
2019-02-19T00:05:03.325Z,44.35
2019-02-19T00:06:03.310Z,44.35
2019-02-19T00:07:03.302Z,44.35
2019-02-19T00:08:03.287Z,44.35
2019-02-19T00:09:03.323Z,44.35
2019-02-19T00:10:03.265Z,44.35
2019-02-19T00:11:03.258Z,44.35
2019-02-19T00:12:03.244Z,44.35
2019-02-19T00:13:03.233Z,44.35
2019-02-19T00:14:03.257Z,44.35
2019-02-19T00:15:08.233Z,44.35
2019-02-19T00:16:04.203Z,44.35
2019-02-19T00:17:03.237Z,44.35
2019-02-19T00:18:03.181Z,44.35
2019-02-19T00:19:03.169Z,44.35
2019-02-19T00:20:03.161Z,44.35
2019-02-19T00:21:03.151Z,44.35
2019-02-19T00:22:03.169Z,44.35
2019-02-19T00:23:03.127Z,44.35
2019-02-19T00:24:03.144Z,44.35
2019-02-19T00:25:03.110Z,44.35
2019-02-19T00:26:03.100Z,44.35
2019-02-19T00:27:03.117Z,44.45
2019-02-19T00:28:03.100Z,44.45
2019-02-19T00:29:03.064Z,44.45
2019-02-19T00:30:03.087Z,44.45
2019-02-19T00:31:03.050Z,44.45
2019-02-19T00:32:03.031Z,44.45
2019-02-19T00:33:03.019Z,44.45
2019-02-19T00:34:03.040Z,44.45
2019-02-19T00:35:03.000Z,44.45
2019-02-19T00:36:04.869Z,44.55
2019-02-19T00:37:03.008Z,44.55
2019-02-19T00:38:02.965Z,44.55
2019-02-19T00:39:02.989Z,44.45
2019-02-19T00:40:02.954Z,44.45
2019-02-19T00:41:02.938Z,44.55
2019-02-19T00:42:02.953Z,44.45
2019-02-19T00:43:02.925Z,44.45
2019-02-19T00:44:02.948Z,44.45
2019-02-19T00:45:02.891Z,44.45
2019-02-19T00:46:02.884Z,44.45
2019-02-19T00:47:02.873Z,44.45
2019-02-19T00:48:02.859Z,44.45
2019-02-19T00:49:02.898Z,44.45
2019-02-19T00:50:02.845Z,44.45
2019-02-19T00:51:02.825Z,44.45
2019-02-19T00:52:02.818Z,44.55
2019-02-19T00:53:02.807Z,44.45
2019-02-19T00:54:02.827Z,44.55
2019-02-19T00:55:02.787Z,44.55
2019-02-19T00:56:02.811Z,44.55
2019-02-19T00:57:02.764Z,44.55
2019-02-19T00:58:02.759Z,44.55
2019-02-19T00:59:02.750Z,44.55
2019-02-19T01:00:02.772Z,44.55
2019-02-19T01:01:02.719Z,44.55
2019-02-19T01:02:02.715Z,44.55
2019-02-19T01:03:02.703Z,44.55
2019-02-19T01:04:02.690Z,44.55
2019-02-19T01:05:02.715Z,44.55
2019-02-19T01:06:02.670Z,44.55
2019-02-19T01:07:02.661Z,44.55
2019-02-19T01:08:02.674Z,44.55
2019-02-19T01:09:02.634Z,44.55
2019-02-19T01:10:02.631Z,44.55
2019-02-19T01:11:02.636Z,44.55
2019-02-19T01:12:02.609Z,44.55
2019-02-19T01:13:02.592Z,44.55
2019-02-19T01:14:02.587Z,44.55
2019-02-19T01:15:02.611Z,44.55
2019-02-19T01:16:02.601Z,44.55
2019-02-19T01:17:02.555Z,44.55
2019-02-19T01:18:02.546Z,44.55
2019-02-19T01:19:02.527Z,44.55
2019-02-19T01:20:02.520Z,44.55
2019-02-19T01:21:02.549Z,44.55
2019-02-19T01:22:02.496Z,44.55
2019-02-19T01:23:02.490Z,44.55
2019-02-19T01:24:02.480Z,44.55
2019-02-19T01:25:02.469Z,44.55
2019-02-19T01:26:02.493Z,44.55
2019-02-19T01:27:02.468Z,44.55
2019-02-19T01:28:02.441Z,44.55
2019-02-19T01:29:02.424Z,44.55
2019-02-19T01:30:02.419Z,44.55
2019-02-19T01:31:02.435Z,44.55
2019-02-19T01:32:02.396Z,44.55
2019-02-19T01:33:02.382Z,44.55
2019-02-19T01:34:02.369Z,44.55
2019-02-19T01:35:02.362Z,44.55
2019-02-19T01:36:02.396Z,44.55
2019-02-19T01:37:02.342Z,44.55
2019-02-19T01:38:02.332Z,44.55
2019-02-19T01:39:02.320Z,44.45
2019-02-19T01:40:02.311Z,44.45
2019-02-19T01:41:02.341Z,44.45
2019-02-19T01:42:02.287Z,44.55
2019-02-19T01:43:02.298Z,44.55
2019-02-19T01:44:02.262Z,44.45
2019-02-19T01:45:02.257Z,44.45
2019-02-19T01:46:02.289Z,44.45
2019-02-19T01:47:02.237Z,44.55
2019-02-19T01:48:02.220Z,44.45
2019-02-19T01:49:02.210Z,44.45
2019-02-19T01:50:02.203Z,44.45
2019-02-19T01:51:02.231Z,44.45
2019-02-19T01:52:02.176Z,44.45
2019-02-19T01:53:02.171Z,44.45
2019-02-19T01:54:02.158Z,44.45
2019-02-19T01:55:02.144Z,44.45
2019-02-19T01:56:02.165Z,44.45
2019-02-19T01:57:02.127Z,44.45
2019-02-19T01:58:02.152Z,44.45
2019-02-19T01:59:02.109Z,44.45
2019-02-19T02:00:02.129Z,44.45
2019-02-19T02:01:02.082Z,44.45
2019-02-19T02:02:02.077Z,44.45
2019-02-19T02:03:02.066Z,44.45
2019-02-19T02:04:02.055Z,44.45
2019-02-19T02:05:02.076Z,44.45
2019-02-19T02:06:02.032Z,44.45
2019-02-19T02:07:02.016Z,44.45
2019-02-19T02:08:02.007Z,44.45
2019-02-19T02:09:02.003Z,44.45
2019-02-19T02:10:02.021Z,44.45
2019-02-19T02:11:02.017Z,44.45
2019-02-19T02:12:01.994Z,44.45
2019-02-19T02:13:01.957Z,44.45
2019-02-19T02:14:01.944Z,44.45
2019-02-19T02:15:01.932Z,44.45
2019-02-19T02:16:01.949Z,44.45
2019-02-19T02:17:01.917Z,44.45
2019-02-19T02:18:01.910Z,44.45
2019-02-19T02:19:01.901Z,44.45
2019-02-19T02:20:01.880Z,44.45
2019-02-19T02:21:01.913Z,44.45
2019-02-19T02:22:01.885Z,44.35
2019-02-19T02:23:01.845Z,44.35
2019-02-19T02:24:01.837Z,44.35
2019-02-19T02:25:01.823Z,44.35
2019-02-19T02:26:01.819Z,44.35
2019-02-19T02:27:01.849Z,44.35
2019-02-19T02:28:01.796Z,44.35
2019-02-19T02:29:01.789Z,44.35
2019-02-19T02:30:01.775Z,44.35
2019-02-19T02:31:01.830Z,44.45
2019-02-19T02:32:01.780Z,44.45
2019-02-19T02:33:01.749Z,44.35
2019-02-19T02:34:01.734Z,44.35
2019-02-19T02:35:01.747Z,44.45
2019-02-19T02:36:01.716Z,44.35
2019-02-19T02:37:01.705Z,44.35
2019-02-19T02:38:01.695Z,44.45
2019-02-19T02:39:01.677Z,44.45
2019-02-19T02:40:01.702Z,44.45
2019-02-19T02:41:01.687Z,44.35
2019-02-19T02:42:01.792Z,44.45
2019-02-19T02:43:01.668Z,44.45
2019-02-19T02:44:01.629Z,44.45
2019-02-19T02:45:01.621Z,44.45
2019-02-19T02:46:01.602Z,44.45
2019-02-19T02:47:01.623Z,44.45
2019-02-19T02:48:01.588Z,44.45
2019-02-19T02:49:01.576Z,44.45
2019-02-19T02:50:01.651Z,44.55
2019-02-19T02:51:01.585Z,44.45
2019-02-19T02:52:01.566Z,44.55
2019-02-19T02:53:01.533Z,44.45
2019-02-19T02:54:01.524Z,44.55
2019-02-19T02:55:01.547Z,44.55
2019-02-19T02:56:01.497Z,44.45
2019-02-19T02:57:01.485Z,44.55
2019-02-19T02:58:01.477Z,44.55
2019-02-19T02:59:01.470Z,44.55
2019-02-19T03:00:01.486Z,44.55
2019-02-19T03:01:01.446Z,44.55
2019-02-19T03:02:01.430Z,44.55
2019-02-19T03:03:01.458Z,44.55
2019-02-19T03:04:01.411Z,44.55
2019-02-19T03:05:01.405Z,44.55
2019-02-19T03:06:01.392Z,44.65
2019-02-19T03:07:01.417Z,44.55
2019-02-19T03:08:01.369Z,44.55
2019-02-19T03:09:01.356Z,44.55
2019-02-19T03:10:01.352Z,44.65
2019-02-19T03:11:01.337Z,44.65
2019-02-19T03:12:01.365Z,44.65
2019-02-19T03:13:01.318Z,44.65
2019-02-19T03:14:01.306Z,44.65
2019-02-19T03:15:01.297Z,44.65
2019-02-19T03:16:02.711Z,44.65
2019-02-19T03:17:01.302Z,44.65
2019-02-19T03:18:01.260Z,44.65
2019-02-19T03:19:01.253Z,44.65
2019-02-19T03:20:01.326Z,44.75
2019-02-19T03:21:01.281Z,44.75
2019-02-19T03:22:01.219Z,44.75
2019-02-19T03:23:01.215Z,44.75
2019-02-19T03:24:01.201Z,44.75
2019-02-19T03:25:01.190Z,44.75
2019-02-19T03:26:01.207Z,44.75
2019-02-19T03:27:01.179Z,44.75
2019-02-19T03:28:01.203Z,44.75
2019-02-19T03:29:01.150Z,44.75
2019-02-19T03:30:01.140Z,44.75
2019-02-19T03:31:01.136Z,44.75
2019-02-19T03:32:01.156Z,44.85
2019-02-19T03:33:01.105Z,44.75
2019-02-19T03:34:01.096Z,44.75
2019-02-19T03:35:01.101Z,44.85
2019-02-19T03:36:01.074Z,44.85
2019-02-19T03:37:01.095Z,44.85
2019-02-19T03:38:01.049Z,44.85
2019-02-19T03:39:01.071Z,44.85
2019-02-19T03:40:01.033Z,44.85
2019-02-19T03:41:01.017Z,44.85
2019-02-19T03:42:01.009Z,44.85
2019-02-19T03:43:01.037Z,44.85
2019-02-19T03:44:00.992Z,44.85
2019-02-19T03:45:01.014Z,44.95
2019-02-19T03:46:00.966Z,44.95
2019-02-19T03:47:00.961Z,44.95
2019-02-19T03:48:00.972Z,44.95
2019-02-19T03:49:00.934Z,44.95
2019-02-19T03:50:00.952Z,44.95
2019-02-19T03:51:00.914Z,44.95
2019-02-19T03:52:00.911Z,44.95
2019-02-19T03:53:00.897Z,44.95
2019-02-19T03:54:00.882Z,44.95
2019-02-19T03:55:00.898Z,44.95
2019-02-19T03:56:00.861Z,45.06
2019-02-19T03:57:00.846Z,44.95
2019-02-19T03:58:00.836Z,44.95
2019-02-19T03:59:00.826Z,45.06
2019-02-19T04:00:00.849Z,44.95
2019-02-19T04:01:00.833Z,45.06
2019-02-19T04:02:00.803Z,45.06
2019-02-19T04:03:00.783Z,45.06
2019-02-19T04:04:00.774Z,45.06
2019-02-19T04:05:00.773Z,45.06
2019-02-19T04:06:00.790Z,45.06
2019-02-19T04:07:00.740Z,45.06
2019-02-19T04:08:00.728Z,45.06
2019-02-19T04:09:00.719Z,45.16
2019-02-19T04:10:00.734Z,45.16
2019-02-19T04:11:00.730Z,45.16
2019-02-19T04:12:00.688Z,45.16
2019-02-19T04:13:00.684Z,45.16
2019-02-19T04:14:00.670Z,45.26
2019-02-19T04:15:00.654Z,45.26
2019-02-19T04:16:00.684Z,45.26
2019-02-19T04:17:00.641Z,45.26
2019-02-19T04:18:00.630Z,45.26
2019-02-19T04:19:00.618Z,45.26
2019-02-19T04:20:00.606Z,45.26
2019-02-19T04:21:00.619Z,45.26
2019-02-19T04:22:00.578Z,45.26
2019-02-19T04:23:00.600Z,45.26
2019-02-19T04:24:00.560Z,45.26
2019-02-19T04:25:00.550Z,45.36
2019-02-19T04:26:00.540Z,45.36
2019-02-19T04:27:00.533Z,45.36
2019-02-19T04:28:00.557Z,45.36
2019-02-19T04:29:00.511Z,45.36
2019-02-19T04:30:00.503Z,45.36
2019-02-19T04:31:00.491Z,45.36
2019-02-19T04:32:00.481Z,45.36
2019-02-19T04:33:00.501Z,45.46
2019-02-19T04:34:00.455Z,45.46
2019-02-19T04:35:00.443Z,45.46
2019-02-19T04:36:00.463Z,45.46
2019-02-19T04:37:00.424Z,45.46
2019-02-19T04:38:00.446Z,45.46
2019-02-19T04:39:00.421Z,45.46
2019-02-19T04:40:00.391Z,45.46
2019-02-19T04:41:00.385Z,45.56
2019-02-19T04:42:00.372Z,45.46
2019-02-19T04:43:00.392Z,45.56
2019-02-19T04:44:00.349Z,45.46
2019-02-19T04:45:00.474Z,45.56
2019-02-19T04:46:00.400Z,45.56
2019-02-19T04:47:00.317Z,45.56
2019-02-19T04:48:00.306Z,45.56
2019-02-19T04:49:00.298Z,45.56
2019-02-19T04:50:00.293Z,45.56
2019-02-19T04:51:00.303Z,45.56
2019-02-19T04:52:00.263Z,45.56
2019-02-19T04:53:00.256Z,45.66
2019-02-19T04:54:00.242Z,45.66
2019-02-19T04:55:00.298Z,45.56
2019-02-19T04:56:00.263Z,45.66
2019-02-19T04:57:00.212Z,45.66
2019-02-19T04:58:00.207Z,45.66
2019-02-19T04:59:00.191Z,45.66
2019-02-19T05:00:00.342Z,45.66
2019-02-19T05:01:00.197Z,45.66
2019-02-19T05:02:00.173Z,45.66
2019-02-19T05:03:00.145Z,45.66
2019-02-19T05:04:00.138Z,45.66
2019-02-19T05:05:00.225Z,45.66
2019-02-19T05:06:00.110Z,45.66
2019-02-19T05:07:00.131Z,45.66
2019-02-19T05:08:00.092Z,45.66
2019-02-19T05:09:00.094Z,45.66
2019-02-19T05:10:00.358Z,45.66
2019-02-19T05:11:00.059Z,45.66
2019-02-19T05:12:00.052Z,45.66
2019-02-19T05:13:00.038Z,45.66
2019-02-19T05:14:00.028Z,45.66
2019-02-19T05:15:00.050Z,45.76
2019-02-19T05:16:00.004Z,45.76
2019-02-19T05:17:00.047Z,45.76
2019-02-19T05:17:59.993Z,45.76
2019-02-19T05:18:59.973Z,45.76
2019-02-19T05:19:59.968Z,45.76
2019-02-19T05:21:00.002Z,45.76
2019-02-19T05:21:59.974Z,45.76
2019-02-19T05:22:59.939Z,45.86
2019-02-19T05:23:59.924Z,45.86
2019-02-19T05:24:59.910Z,45.86
2019-02-19T05:25:59.895Z,45.86
2019-02-19T05:26:59.916Z,45.86
2019-02-19T05:27:59.878Z,45.76
2019-02-19T05:28:59.871Z,45.86
2019-02-19T05:29:59.887Z,45.86
2019-02-19T05:30:59.842Z,45.86
2019-02-19T05:31:59.864Z,45.86
2019-02-19T05:32:59.826Z,45.86
2019-02-19T05:33:59.819Z,45.86
2019-02-19T05:34:59.803Z,45.86
2019-02-19T05:35:59.842Z,45.86
2019-02-19T05:36:59.786Z,45.86
2019-02-19T05:37:59.807Z,45.86
2019-02-19T05:38:59.758Z,45.86
2019-02-19T05:39:59.756Z,45.86
2019-02-19T05:40:59.770Z,45.86
2019-02-19T05:41:59.730Z,45.86
2019-02-19T05:43:01.519Z,45.86
2019-02-19T05:43:59.712Z,45.86
2019-02-19T05:44:59.692Z,45.86
2019-02-19T05:45:59.712Z,45.86
2019-02-19T05:46:59.676Z,45.86
2019-02-19T05:47:59.667Z,45.86
2019-02-19T05:48:59.656Z,45.86
2019-02-19T05:49:59.649Z,45.86
2019-02-19T05:50:59.670Z,45.86
2019-02-19T05:51:59.621Z,45.97
2019-02-19T05:52:59.617Z,45.86
2019-02-19T05:53:59.613Z,45.86
2019-02-19T05:54:59.588Z,45.97
2019-02-19T05:55:59.622Z,45.97
2019-02-19T05:56:59.572Z,45.97
2019-02-19T05:57:59.569Z,45.97
2019-02-19T05:58:59.549Z,45.97
2019-02-19T05:59:59.535Z,45.97
2019-02-19T06:00:59.565Z,46.06
2019-02-19T06:01:59.531Z,46.06
2019-02-19T06:02:59.504Z,46.06
2019-02-19T06:03:59.495Z,46.06
2019-02-19T06:04:59.482Z,46.06
2019-02-19T06:05:59.511Z,46.06
2019-02-19T06:06:59.464Z,46.06
2019-02-19T06:07:59.454Z,46.06
2019-02-19T06:08:59.448Z,46.06
2019-02-19T06:09:59.434Z,46.06
2019-02-19T06:10:59.461Z,46.06
2019-02-19T06:11:59.417Z,46.06
2019-02-19T06:12:59.400Z,46.06
2019-02-19T06:13:59.416Z,46.06
2019-02-19T06:14:59.374Z,46.06
2019-02-19T06:15:59.392Z,46.06
2019-02-19T06:16:59.353Z,46.06
2019-02-19T06:17:59.343Z,46.06
2019-02-19T06:18:59.367Z,46.06
2019-02-19T06:19:59.321Z,46.06
2019-02-19T06:20:59.313Z,46.06
2019-02-19T06:21:59.307Z,46.06
2019-02-19T06:22:59.293Z,46.06
2019-02-19T06:23:59.316Z,46.06
2019-02-19T06:24:59.270Z,46.06
2019-02-19T06:25:59.257Z,46.17
2019-02-19T06:26:59.246Z,46.06
2019-02-19T06:27:59.271Z,46.06
2019-02-19T06:28:59.226Z,46.17
2019-02-19T06:29:59.248Z,46.17
2019-02-19T06:30:59.214Z,46.17
2019-02-19T06:31:59.198Z,46.17
2019-02-19T06:32:59.191Z,46.17
2019-02-19T06:33:59.182Z,46.17
2019-02-19T06:34:59.215Z,46.17
2019-02-19T06:35:59.150Z,46.17
2019-02-19T06:36:59.142Z,46.17
2019-02-19T06:37:59.133Z,46.17
2019-02-19T06:38:59.122Z,46.17
2019-02-19T06:39:59.142Z,46.17
2019-02-19T06:40:59.097Z,46.17
2019-02-19T06:41:59.088Z,46.17
2019-02-19T06:42:59.082Z,46.17
2019-02-19T06:43:59.071Z,46.17
2019-02-19T06:44:59.089Z,46.17
2019-02-19T06:45:59.050Z,46.17
2019-02-19T06:47:06.498Z,46.17
2019-02-19T06:48:00.027Z,46.17
2019-02-19T06:48:59.047Z,46.17
2019-02-19T06:49:59.008Z,46.17
2019-02-19T06:50:58.994Z,46.17
2019-02-19T06:51:58.982Z,46.17
2019-02-19T06:52:58.969Z,46.17
2019-02-19T06:53:58.996Z,46.17
2019-02-19T06:54:58.955Z,46.26
2019-02-19T06:55:58.940Z,46.17
2019-02-19T06:56:58.929Z,46.17
2019-02-19T06:57:58.950Z,46.26
2019-02-19T06:58:58.909Z,46.17
2019-02-19T06:59:58.902Z,46.26
2019-02-19T07:00:58.916Z,46.26
2019-02-19T07:01:58.882Z,46.26
2019-02-19T07:02:58.865Z,46.26
2019-02-19T07:03:58.857Z,46.17
2019-02-19T07:04:58.841Z,46.26
2019-02-19T07:05:58.862Z,46.26
2019-02-19T07:06:58.827Z,46.26
2019-02-19T07:07:58.812Z,46.26
2019-02-19T07:08:58.799Z,46.26
2019-02-19T07:09:58.787Z,46.17
2019-02-19T07:10:58.808Z,46.26
2019-02-19T07:11:58.970Z,46.26
2019-02-19T07:12:58.764Z,46.17
2019-02-19T07:13:58.748Z,46.26
2019-02-19T07:14:58.735Z,46.26
2019-02-19T07:15:58.727Z,46.26
2019-02-19T07:16:58.742Z,46.26
2019-02-19T07:17:58.736Z,46.26
2019-02-19T07:18:58.695Z,46.26
2019-02-19T07:19:58.685Z,46.26
2019-02-19T07:20:58.670Z,46.26
2019-02-19T07:21:58.659Z,46.26
2019-02-19T07:22:58.674Z,46.26
2019-02-19T07:24:04.530Z,46.26
2019-02-19T07:24:59.630Z,46.26
2019-02-19T07:25:58.620Z,46.26
2019-02-19T07:26:58.605Z,46.26
2019-02-19T07:27:58.601Z,46.26
2019-02-19T07:28:58.624Z,46.26
2019-02-19T07:29:58.578Z,46.26
2019-02-19T07:30:58.571Z,46.26
2019-02-19T07:31:58.551Z,46.26
2019-02-19T07:32:58.572Z,46.26
2019-02-19T07:33:58.541Z,46.26
2019-02-19T07:34:58.556Z,46.26
2019-02-19T07:35:58.513Z,46.26
2019-02-19T07:36:58.501Z,46.26
2019-02-19T07:37:58.497Z,46.26
2019-02-19T07:38:58.482Z,46.26
2019-02-19T07:39:58.505Z,46.26
2019-02-19T07:40:58.463Z,46.26
2019-02-19T07:41:58.482Z,46.26
2019-02-19T07:42:58.434Z,46.26
2019-02-19T07:43:58.429Z,46.26
2019-02-19T07:44:58.420Z,46.26
2019-02-19T07:45:58.410Z,46.26
2019-02-19T07:46:58.427Z,46.26
2019-02-19T07:47:58.385Z,46.37
2019-02-19T07:48:58.372Z,46.26
2019-02-19T07:49:58.363Z,46.26
2019-02-19T07:50:58.352Z,46.37
2019-02-19T07:51:58.376Z,46.37
2019-02-19T07:52:58.333Z,46.37
2019-02-19T07:53:58.318Z,46.37
2019-02-19T07:54:58.307Z,46.37
2019-02-19T07:55:58.300Z,46.37
2019-02-19T07:56:58.332Z,46.37
2019-02-19T07:57:58.277Z,46.37
2019-02-19T07:58:58.270Z,46.37
2019-02-19T07:59:58.257Z,46.37
2019-02-19T08:00:58.243Z,46.37
2019-02-19T08:01:59.224Z,46.37
2019-02-19T08:02:58.227Z,46.37
2019-02-19T08:03:58.216Z,46.37
2019-02-19T08:04:58.204Z,46.37
2019-02-19T08:05:58.191Z,46.37
2019-02-19T08:06:58.213Z,46.37
2019-02-19T08:07:58.174Z,46.37
2019-02-19T08:08:58.161Z,46.26
2019-02-19T08:09:58.150Z,46.37
2019-02-19T08:10:58.135Z,46.26
2019-02-19T08:11:58.170Z,46.37
2019-02-19T08:12:58.122Z,46.37
2019-02-19T08:13:58.110Z,46.37
2019-02-19T08:14:58.094Z,46.37
2019-02-19T08:15:58.082Z,46.37
2019-02-19T08:16:58.100Z,46.37
2019-02-19T08:17:58.100Z,46.37
2019-02-19T08:18:58.058Z,46.37
2019-02-19T08:19:58.044Z,46.37
2019-02-19T08:20:58.033Z,46.37
2019-02-19T08:21:58.024Z,46.37
2019-02-19T08:22:58.058Z,46.37
2019-02-19T08:23:58.005Z,46.37
2019-02-19T08:24:57.989Z,46.37
2019-02-19T08:25:57.983Z,46.37
2019-02-19T08:26:57.970Z,46.37
2019-02-19T08:27:57.996Z,46.37
2019-02-19T08:29:11.395Z,46.37
2019-02-19T08:29:58.939Z,46.37
2019-02-19T08:30:57.927Z,46.26
2019-02-19T08:31:57.920Z,46.37
2019-02-19T08:32:57.950Z,46.26
2019-02-19T08:33:57.898Z,46.37
2019-02-19T08:34:57.885Z,46.26
2019-02-19T08:35:57.877Z,46.26
2019-02-19T08:36:57.862Z,46.37
2019-02-19T08:37:57.896Z,46.37
2019-02-19T08:38:57.838Z,46.37
2019-02-19T08:39:57.830Z,46.37
2019-02-19T08:40:57.824Z,46.37
2019-02-19T08:41:57.809Z,46.47
2019-02-19T08:42:57.833Z,46.47
2019-02-19T08:43:57.789Z,46.47
2019-02-19T08:44:57.781Z,46.47
2019-02-19T08:45:57.769Z,46.47
2019-02-19T08:46:57.789Z,46.47
2019-02-19T08:47:57.742Z,46.47
2019-02-19T08:48:57.731Z,46.37
2019-02-19T08:49:58.123Z,46.47
2019-02-19T08:50:57.714Z,46.77
2019-02-19T08:51:57.706Z,46.87
2019-02-19T08:52:57.693Z,46.87
2019-02-19T08:53:57.715Z,46.87
2019-02-19T08:54:57.672Z,46.97
2019-02-19T08:55:57.665Z,47.07
2019-02-19T08:56:57.647Z,47.07
2019-02-19T08:57:57.669Z,47.07
2019-02-19T08:58:57.627Z,46.97
2019-02-19T08:59:57.615Z,47.07
2019-02-19T09:00:57.608Z,47.07
2019-02-19T09:01:57.622Z,46.97
2019-02-19T09:02:57.583Z,46.97
2019-02-19T09:03:57.572Z,46.97
2019-02-19T09:04:57.592Z,46.97
2019-02-19T09:05:57.549Z,47.17
2019-02-19T09:06:57.576Z,47.96
2019-02-19T09:07:57.529Z,48.26
2019-02-19T09:08:57.522Z,48.86
2019-02-19T09:09:57.508Z,48.86
2019-02-19T09:10:57.506Z,49.07
2019-02-19T09:11:57.518Z,48.96
2019-02-19T09:12:57.510Z,49.37
2019-02-19T09:13:57.467Z,49.67
2019-02-19T09:14:57.457Z,49.77
2019-02-19T09:15:57.449Z,49.77
2019-02-19T09:16:57.476Z,49.97
2019-02-19T09:17:57.425Z,49.77
2019-02-19T09:18:57.415Z,49.77
2019-02-19T09:19:57.406Z,49.77
2019-02-19T09:20:57.391Z,49.77
2019-02-19T09:21:57.413Z,49.77
2019-02-19T09:22:57.395Z,49.77
2019-02-19T09:23:58.509Z,49.75
2019-02-19T09:24:57.348Z,49.65
2019-02-19T09:25:57.339Z,49.65
2019-02-19T09:26:57.329Z,49.75
2019-02-19T09:27:57.346Z,49.24
2019-02-19T09:28:57.306Z,49.55
2019-02-19T09:29:57.298Z,49.55
2019-02-19T09:30:57.290Z,49.65
2019-02-19T09:31:57.276Z,49.65
2019-02-19T09:32:57.291Z,49.65
2019-02-19T09:33:57.283Z,49.65
2019-02-19T09:34:57.244Z,49.75
2019-02-19T09:35:57.233Z,49.75
2019-02-19T09:36:57.224Z,49.85
2019-02-19T09:37:57.214Z,49.85
2019-02-19T09:38:57.237Z,49.85
2019-02-19T09:39:57.190Z,49.85
2019-02-19T09:40:57.182Z,49.95
2019-02-19T09:41:57.167Z,49.95
2019-02-19T09:42:57.156Z,49.95
2019-02-19T09:43:57.192Z,49.95
2019-02-19T09:44:57.137Z,49.95
2019-02-19T09:45:58.972Z,50.05
2019-02-19T09:46:57.118Z,50.15
2019-02-19T09:48:01.261Z,50.15
2019-02-19T09:48:57.133Z,50.15
2019-02-19T09:49:57.081Z,50.15
2019-02-19T09:50:57.069Z,50.15
2019-02-19T09:51:57.057Z,50.15
2019-02-19T09:53:00.112Z,50.05
2019-02-19T09:53:57.071Z,50.05
2019-02-19T09:54:57.029Z,50.05
2019-02-19T09:55:57.020Z,49.95
2019-02-19T09:56:57.050Z,49.95
2019-02-19T09:57:56.997Z,49.85
2019-02-19T09:58:56.993Z,49.75
2019-02-19T09:59:56.977Z,49.55
2019-02-19T10:00:56.971Z,49.65
2019-02-19T10:01:56.987Z,49.65
2019-02-19T10:02:56.972Z,49.65
2019-02-19T10:03:56.931Z,49.65
2019-02-19T10:04:56.923Z,49.55
2019-02-19T10:05:56.952Z,49.55
2019-02-19T10:06:56.908Z,49.35
2019-02-19T10:07:56.892Z,49.42
2019-02-19T10:08:56.879Z,49.44
2019-02-19T10:09:56.865Z,49.32
2019-02-19T10:10:56.894Z,49.35
2019-02-19T10:11:56.848Z,49.35
2019-02-19T10:12:56.869Z,49.42
2019-02-19T10:13:56.825Z,49.35
2019-02-19T10:14:56.818Z,49.32
2019-02-19T10:15:56.802Z,49.22
2019-02-19T10:16:56.794Z,49.22
2019-02-19T10:17:56.818Z,49.22
2019-02-19T10:18:56.778Z,49.22
2019-02-19T10:19:56.792Z,49.22
2019-02-19T10:20:56.747Z,49.22
2019-02-19T10:21:56.738Z,49.12
2019-02-19T10:22:56.730Z,49.12
2019-02-19T10:23:56.718Z,49.02
2019-02-19T10:24:56.740Z,49.02
2019-02-19T10:25:56.701Z,49.02
2019-02-19T10:26:56.685Z,49.02
2019-02-19T10:27:56.671Z,49.02
2019-02-19T10:28:56.664Z,48.82
2019-02-19T10:29:56.683Z,48.72
2019-02-19T10:30:56.642Z,48.72
2019-02-19T10:31:56.638Z,48.72
2019-02-19T10:32:56.619Z,48.72
2019-02-19T10:33:56.612Z,48.82
2019-02-19T10:34:56.631Z,48.82
2019-02-19T10:35:56.589Z,48.82
2019-02-19T10:36:56.584Z,48.82
2019-02-19T10:37:56.617Z,48.72
2019-02-19T10:38:56.562Z,48.72
2019-02-19T10:39:56.547Z,48.72
2019-02-19T10:40:56.535Z,48.72
2019-02-19T10:41:56.527Z,48.82
2019-02-19T10:42:56.543Z,48.72
2019-02-19T10:43:56.537Z,48.52
2019-02-19T10:44:56.492Z,48.52
2019-02-19T10:45:56.481Z,48.52
2019-02-19T10:46:56.473Z,48.52
2019-02-19T10:47:56.466Z,48.52
2019-02-19T10:48:56.481Z,48.52
2019-02-19T10:49:56.441Z,48.41
2019-02-19T10:50:56.441Z,48.41
2019-02-19T10:51:56.424Z,48.52
2019-02-19T10:52:56.414Z,48.52
2019-02-19T10:53:56.431Z,48.52
2019-02-19T10:54:56.388Z,48.52
2019-02-19T10:55:56.421Z,48.52
2019-02-19T10:56:56.367Z,48.52
2019-02-19T10:57:56.362Z,48.61
2019-02-19T10:58:56.349Z,48.52
2019-02-19T10:59:56.345Z,48.52
2019-02-19T11:00:56.369Z,48.41
2019-02-19T11:01:56.310Z,48.52
2019-02-19T11:02:56.304Z,48.52
2019-02-19T11:03:56.291Z,48.52
2019-02-19T11:04:56.283Z,48.41
2019-02-19T11:05:56.299Z,48.32
2019-02-19T11:06:56.262Z,48.32
2019-02-19T11:07:56.250Z,48.21
2019-02-19T11:08:56.236Z,48.11
2019-02-19T11:09:56.261Z,48.21
2019-02-19T11:10:56.218Z,48.21
2019-02-19T11:11:58.073Z,48.01
2019-02-19T11:12:56.197Z,47.71
2019-02-19T11:13:56.269Z,48.01
2019-02-19T11:14:56.170Z,48.01
2019-02-19T11:15:56.163Z,48.11
2019-02-19T11:16:56.154Z,48.21
2019-02-19T11:17:56.139Z,48.52
2019-02-19T11:18:56.176Z,48.61
2019-02-19T11:19:56.122Z,48.32
2019-02-19T11:20:56.111Z,48.32
2019-02-19T11:21:56.107Z,48.32
2019-02-19T11:22:56.091Z,48.21
2019-02-19T11:23:56.110Z,48.21
2019-02-19T11:24:56.099Z,48.21
2019-02-19T11:25:56.088Z,48.11
2019-02-19T11:26:56.050Z,48.21
2019-02-19T11:27:56.038Z,48.01
2019-02-19T11:28:56.027Z,47.91
2019-02-19T11:29:56.029Z,47.91
2019-02-19T11:30:56.034Z,47.81
2019-02-19T11:31:55.993Z,47.81
2019-02-19T11:32:55.978Z,47.83
2019-02-19T11:33:55.977Z,47.74
2019-02-19T11:34:55.990Z,47.74
2019-02-19T11:35:55.980Z,47.63
2019-02-19T11:36:55.943Z,47.74
2019-02-19T11:37:55.929Z,47.83
2019-02-19T11:38:55.921Z,47.83
2019-02-19T11:39:55.908Z,47.94
2019-02-19T11:40:55.947Z,48.03
2019-02-19T11:41:55.883Z,48.14
2019-02-19T11:42:55.878Z,48.14
2019-02-19T11:43:55.868Z,48.14
2019-02-19T11:44:55.850Z,48.03
2019-02-19T11:45:55.882Z,47.83
2019-02-19T11:46:55.832Z,47.83
2019-02-19T11:47:55.822Z,47.83
2019-02-19T11:48:56.305Z,47.74
2019-02-19T11:49:55.804Z,47.74
2019-02-19T11:50:55.823Z,47.63
2019-02-19T11:51:55.781Z,47.43
2019-02-19T11:52:55.768Z,47.63
2019-02-19T11:53:55.794Z,47.53
2019-02-19T11:54:55.748Z,47.53
2019-02-19T11:55:55.764Z,47.63
2019-02-19T11:56:55.721Z,47.83
2019-02-19T11:57:55.716Z,47.83
2019-02-19T11:58:55.730Z,47.74
2019-02-19T11:59:55.698Z,47.74
2019-02-19T12:00:55.687Z,47.63
2019-02-19T12:01:55.674Z,47.74
2019-02-19T12:02:55.670Z,47.63
2019-02-19T12:03:55.726Z,47.63
2019-02-19T12:04:55.638Z,47.43
2019-02-19T12:05:55.627Z,47.53
2019-02-19T12:06:55.618Z,47.74
2019-02-19T12:07:55.610Z,47.63
2019-02-19T12:08:55.625Z,47.63
2019-02-19T12:09:55.585Z,47.74
2019-02-19T12:10:55.576Z,47.83
2019-02-19T12:11:55.598Z,47.83
2019-02-19T12:12:55.552Z,47.74
2019-02-19T12:13:55.547Z,47.53
2019-02-19T12:14:55.536Z,47.53
2019-02-19T12:15:55.523Z,47.53
2019-02-19T12:16:55.543Z,47.53
2019-02-19T12:17:55.504Z,47.53
2019-02-19T12:18:55.493Z,47.53
2019-02-19T12:19:55.486Z,47.53
2019-02-19T12:20:55.499Z,47.53
2019-02-19T12:21:55.461Z,47.53
2019-02-19T12:22:55.448Z,47.43
2019-02-19T12:23:55.440Z,47.33
2019-02-19T12:24:55.457Z,47.43
2019-02-19T12:25:55.419Z,47.53
2019-02-19T12:26:55.407Z,47.43
2019-02-19T12:27:55.394Z,47.43
2019-02-19T12:28:55.389Z,47.43
2019-02-19T12:29:55.405Z,47.53
2019-02-19T12:30:55.362Z,47.53
2019-02-19T12:31:55.351Z,47.53
2019-02-19T12:32:55.343Z,47.53
2019-02-19T12:33:55.333Z,47.63
2019-02-19T12:34:55.359Z,47.53
2019-02-19T12:35:55.317Z,47.63
2019-02-19T12:36:55.302Z,47.63
2019-02-19T12:37:55.299Z,47.63
2019-02-19T12:38:55.274Z,47.53
2019-02-19T12:39:55.310Z,47.53
2019-02-19T12:40:55.261Z,47.53
2019-02-19T12:41:55.245Z,47.51
2019-02-19T12:42:55.235Z,47.33
2019-02-19T12:43:55.227Z,47.33
2019-02-19T12:44:55.244Z,47.43
2019-02-19T12:45:55.223Z,47.43
2019-02-19T12:46:55.195Z,47.33
2019-02-19T12:47:55.181Z,47.43
2019-02-19T12:48:55.166Z,47.53
2019-02-19T12:49:55.159Z,47.53
2019-02-19T12:50:55.185Z,47.43
2019-02-19T12:51:55.633Z,47.43